createdAt,value
2017-07-15T00:03:19.660Z,2
2017-07-15T00:13:19.600Z,1
2017-07-15T00:23:19.510Z,2
2017-07-15T00:33:19.544Z,2
2017-07-15T00:43:19.630Z,2
2017-07-15T00:53:19.535Z,2
2017-07-15T01:03:19.864Z,2
2017-07-15T01:13:19.591Z,2
2017-07-15T01:23:19.866Z,2
2017-07-15T01:33:20.653Z,3
2017-07-15T01:43:19.638Z,3
2017-07-15T01:53:19.540Z,3
2017-07-15T02:03:20.317Z,3
2017-07-15T02:13:19.560Z,2
2017-07-15T02:23:22.090Z,4
2017-07-15T02:33:24.659Z,4
2017-07-15T02:43:19.537Z,4
2017-07-15T02:53:20.758Z,4
2017-07-15T03:03:21.888Z,4
2017-07-15T03:13:19.537Z,3
2017-07-15T03:23:19.701Z,4
2017-07-15T03:33:19.533Z,3
2017-07-15T03:43:19.524Z,4
2017-07-15T03:53:19.549Z,3
2017-07-15T04:03:19.519Z,3
2017-07-15T04:13:19.533Z,4
2017-07-15T04:23:19.503Z,4
2017-07-15T04:33:19.521Z,3
2017-07-15T04:43:19.528Z,3
2017-07-15T04:53:19.643Z,3
2017-07-15T05:03:19.532Z,3
2017-07-15T05:13:19.529Z,3
2017-07-15T05:23:21.502Z,3
2017-07-15T05:33:21.305Z,3
2017-07-15T05:43:19.672Z,3
2017-07-15T05:53:19.535Z,3
2017-07-15T06:03:19.575Z,2
2017-07-15T06:13:19.540Z,2
2017-07-15T06:23:19.555Z,2
2017-07-15T06:33:19.559Z,2
2017-07-15T06:43:19.513Z,2
2017-07-15T06:53:19.598Z,2
2017-07-15T07:03:19.583Z,2
2017-07-15T07:13:19.530Z,2
2017-07-15T07:23:19.554Z,2
2017-07-15T07:33:19.605Z,3
2017-07-15T07:43:19.556Z,3
2017-07-15T07:53:19.569Z,2
2017-07-15T08:03:19.609Z,3
2017-07-15T08:13:19.543Z,1
2017-07-15T08:23:19.618Z,1
2017-07-15T08:33:19.587Z,1
2017-07-15T08:43:19.622Z,2
2017-07-15T08:53:19.571Z,2
2017-07-15T09:03:19.596Z,2
2017-07-15T09:13:20.458Z,2
2017-07-15T09:23:19.554Z,2
2017-07-15T09:33:19.610Z,2
2017-07-15T09:43:19.628Z,2
2017-07-15T09:53:19.582Z,1
2017-07-15T10:03:19.606Z,1
2017-07-15T10:13:19.624Z,1
2017-07-15T10:23:19.555Z,1
2017-07-15T10:33:19.573Z,2
2017-07-15T10:43:19.582Z,2
2017-07-15T10:53:19.625Z,2
2017-07-15T11:03:19.681Z,1
2017-07-15T11:13:19.601Z,1
2017-07-15T11:23:19.553Z,2
2017-07-15T11:33:21.247Z,1
2017-07-15T11:43:20.598Z,1
2017-07-15T11:53:19.565Z,1
2017-07-15T12:03:19.607Z,2
2017-07-15T12:13:19.605Z,2
2017-07-15T12:23:19.672Z,1
2017-07-15T12:33:19.552Z,1
2017-07-15T12:43:19.638Z,1
2017-07-15T12:53:19.546Z,1
2017-07-15T13:03:19.704Z,1
2017-07-15T13:13:19.575Z,1
2017-07-15T13:23:19.761Z,1
2017-07-15T13:33:19.666Z,1
2017-07-15T13:43:19.631Z,1
2017-07-15T13:53:19.617Z,1
2017-07-15T14:03:19.999Z,1
2017-07-15T14:13:19.615Z,1
2017-07-15T14:23:19.639Z,1
2017-07-15T14:33:19.660Z,1
2017-07-15T14:43:19.883Z,1
2017-07-15T14:53:19.735Z,1
2017-07-15T15:03:19.691Z,1
2017-07-15T15:13:20.129Z,1
2017-07-15T15:23:19.668Z,1
2017-07-15T15:33:21.772Z,1
2017-07-15T15:43:20.713Z,3
2017-07-15T15:53:19.706Z,1
2017-07-15T16:03:19.726Z,1
2017-07-15T16:13:19.736Z,1
2017-07-15T16:23:22.971Z,1
2017-07-15T16:33:20.793Z,0
2017-07-15T16:43:19.650Z,1
2017-07-15T16:53:21.730Z,1
2017-07-15T17:03:19.672Z,0
2017-07-15T17:13:19.633Z,0
2017-07-15T17:23:19.642Z,1
2017-07-15T17:33:19.636Z,1
2017-07-15T17:43:19.607Z,2
2017-07-15T17:53:19.637Z,1
2017-07-15T18:03:19.649Z,1
2017-07-15T18:13:19.700Z,1
2017-07-15T18:25:27.924Z,1
2017-07-15T18:33:19.655Z,1
2017-07-15T18:43:19.813Z,1
2017-07-15T18:53:19.650Z,1
2017-07-15T19:03:19.635Z,1
2017-07-15T19:13:19.750Z,1
2017-07-15T19:23:20.786Z,2
2017-07-15T19:33:19.679Z,1
2017-07-15T19:43:19.724Z,1
2017-07-15T19:53:19.714Z,1
2017-07-15T20:03:20.680Z,1
2017-07-15T20:13:19.750Z,1
2017-07-15T20:23:19.660Z,2
2017-07-15T20:33:19.683Z,2
2017-07-15T20:43:19.629Z,3
2017-07-15T20:53:19.659Z,4
2017-07-15T21:03:19.667Z,3
2017-07-15T21:13:19.680Z,3
2017-07-15T21:23:19.608Z,2
2017-07-15T21:33:19.787Z,2
2017-07-15T21:43:19.707Z,3
2017-07-15T21:53:19.679Z,3
2017-07-15T22:03:19.682Z,4
2017-07-15T22:13:20.094Z,4
2017-07-15T22:23:19.654Z,4
2017-07-15T22:33:19.681Z,5
2017-07-15T22:43:19.651Z,4
2017-07-15T22:53:19.684Z,4
2017-07-15T23:03:19.694Z,5
2017-07-15T23:13:19.705Z,6
2017-07-15T23:23:19.834Z,6
2017-07-15T23:33:19.716Z,7
2017-07-15T23:43:19.697Z,6
2017-07-15T23:53:19.691Z,8
